Time;durP1;ratioP1;P1;durP2;ratioP2;P2;SDS_P1;SDS_P2;PMS_P1;PMS_P2;Temp;Humidity;BMP_temperature;BMP_pressure;BME280_temperature;BME280_humidity;BME280_pressure;Samples;Min_cycle;Max_cycle;Signal;HPM_P1;HPM_P2
2024/04/02 00:01:02;;;;;;;33.20;15.48;;;;;;;8.30;100.00;99075.47;5032430;28;20572;-74
2024/04/02 00:03:27;;;;;;;33.03;14.07;;;;;;;8.38;100.00;99068.19;5037484;28;20075;-73
2024/04/02 00:05:53;;;;;;;27.83;13.47;;;;;;;8.34;100.00;99061.59;5035843;28;20065;-73
2024/04/02 00:08:18;;;;;;;30.40;17.00;;;;;;;8.36;100.00;99066.75;5033008;28;20279;-74
2024/04/02 00:10:43;;;;;;;33.07;14.37;;;;;;;8.24;100.00;99061.06;5036983;28;20061;-74
2024/04/02 00:13:09;;;;;;;45.63;15.77;;;;;;;8.30;100.00;99078.13;5033299;28;20268;-74
2024/04/02 00:15:34;;;;;;;42.50;15.73;;;;;;;8.25;100.00;99079.50;5020520;28;20029;-73
2024/04/02 00:18:00;;;;;;;31.63;15.17;;;;;;;8.31;100.00;99075.28;5015605;28;20622;-74
2024/04/02 00:20:25;;;;;;;28.27;15.63;;;;;;;8.21;100.00;99066.78;5038124;28;20037;-74
2024/04/02 00:22:51;;;;;;;26.60;13.45;;;;;;;8.21;100.00;99085.38;5034402;28;20131;-74
2024/04/02 00:25:17;;;;;;;32.80;14.63;;;;;;;8.25;100.00;99078.69;5039128;28;20028;-74
2024/04/02 00:27:42;;;;;;;28.55;16.50;;;;;;;8.37;100.00;99090.47;5035192;28;20037;-75
2024/04/02 00:30:08;;;;;;;31.57;16.87;;;;;;;8.37;100.00;99092.31;5034825;28;20057;-74
2024/04/02 00:32:34;;;;;;;38.88;17.83;;;;;;;8.32;100.00;99090.22;5036300;28;20140;-74
2024/04/02 00:35:00;;;;;;;44.37;18.83;;;;;;;8.31;100.00;99085.91;5032919;28;20125;-73
2024/04/02 00:37:25;;;;;;;41.87;18.93;;;;;;;8.41;100.00;99098.94;5036736;28;20040;-73
2024/04/02 00:39:51;;;;;;;45.10;18.93;;;;;;;8.36;100.00;99091.50;5027512;28;20334;-73
2024/04/02 00:42:17;;;;;;;37.47;19.02;;;;;;;8.37;100.00;99097.63;5027011;28;20039;-74
2024/04/02 00:44:43;;;;;;;39.45;19.10;;;;;;;8.36;100.00;99091.50;5034467;28;20045;-74
2024/04/02 00:47:09;;;;;;;40.25;20.42;;;;;;;8.35;100.00;99104.97;5033455;28;20035;-74
2024/04/02 00:49:36;;;;;;;39.53;18.38;;;;;;;8.38;100.00;99099.25;5034847;28;20136;-73
2024/04/02 00:52:02;;;;;;;42.30;18.65;;;;;;;8.27;100.00;99076.66;5035235;28;20038;-74
2024/04/02 00:54:28;;;;;;;43.78;18.55;;;;;;;8.36;100.00;99096.81;5036983;28;20047;-74
2024/04/02 00:56:54;;;;;;;37.28;18.15;;;;;;;8.29;100.00;99095.06;5016880;28;20041;-74
2024/04/02 00:59:21;;;;;;;37.60;16.15;;;;;;;8.29;100.00;99106.56;5033567;28;20373;-75
2024/04/02 01:01:47;;;;;;;35.13;17.65;;;;;;;8.34;100.00;99104.16;5033321;28;20025;-75
2024/04/02 01:04:12;;;;;;;30.95;16.73;;;;;;;8.31;100.00;99101.88;5040188;28;20041;-74
2024/04/02 01:06:38;;;;;;;33.95;16.23;;;;;;;8.32;100.00;99100.84;5033883;28;20491;-75
2024/04/02 01:09:06;;;;;;;31.95;15.65;;;;;;;8.30;100.00;99094.91;5034854;28;20069;-76
2024/04/02 01:11:34;;;;;;;28.98;14.90;;;;;;;8.37;100.00;99106.41;5037422;28;20124;-75
2024/04/02 01:13:59;;;;;;;43.45;17.67;;;;;;;8.38;100.00;99112.56;5030109;28;20524;-75
2024/04/02 01:16:25;;;;;;;30.33;16.08;;;;;;;8.41;100.00;99094.44;5037754;28;20041;-75
2024/04/02 01:18:50;;;;;;;31.50;15.53;;;;;;;8.47;100.00;99102.66;5016239;28;20029;-75
2024/04/02 01:21:20;;;;;;;40.07;16.67;;;;;;;8.54;100.00;99109.69;5035478;28;20315;-75
2024/04/02 01:23:45;;;;;;;32.65;15.93;;;;;;;8.43;100.00;99103.06;5035161;28;20115;-75
2024/04/02 01:26:11;;;;;;;35.60;15.70;;;;;;;8.52;100.00;99108.25;5029729;28;20033;-75
2024/04/02 01:28:38;;;;;;;36.83;14.30;;;;;;;8.41;100.00;99110.41;5028713;28;20716;-75
2024/04/02 01:31:03;;;;;;;33.78;17.17;;;;;;;8.40;100.00;99115.88;5011758;28;20053;-75
2024/04/02 01:33:29;;;;;;;42.58;17.65;;;;;;;8.43;100.00;99121.66;5036869;28;20021;-74
2024/04/02 01:35:55;;;;;;;27.65;15.00;;;;;;;8.39;100.00;99115.03;5016209;28;20056;-75
2024/04/02 01:38:20;;;;;;;36.22;15.70;;;;;;;8.42;100.00;99121.84;5035583;28;20036;-75
2024/04/02 01:40:46;;;;;;;27.27;14.73;;;;;;;8.39;100.00;99122.19;5038818;28;20067;-75
2024/04/02 01:43:11;;;;;;;40.05;16.60;;;;;;;8.39;100.00;99127.53;5037834;28;20562;-75
2024/04/02 01:45:37;;;;;;;40.30;17.20;;;;;;;8.38;100.00;99129.38;5022259;28;20047;-75
2024/04/02 01:48:03;;;;;;;42.72;19.58;;;;;;;8.36;100.00;99131.38;5016178;28;20168;-75
2024/04/02 01:50:29;;;;;;;42.50;19.40;;;;;;;8.38;100.00;99142.66;5044566;28;20151;-74
2024/04/02 01:52:54;;;;;;;44.42;19.85;;;;;;;8.39;100.00;99144.28;5041487;28;20036;-75
2024/04/02 01:55:19;;;;;;;50.27;22.93;;;;;;;8.29;100.00;99133.16;5019723;28;20034;-75
2024/04/02 01:57:45;;;;;;;43.20;20.47;;;;;;;8.40;100.00;99145.97;5033137;28;20036;-75
2024/04/02 02:00:11;;;;;;;50.33;21.77;;;;;;;8.47;100.00;99154.00;5014813;28;20044;-75
2024/04/02 02:02:36;;;;;;;52.63;24.02;;;;;;;8.42;100.00;99143.94;5031478;28;20030;-75
2024/04/02 02:05:02;;;;;;;38.63;21.33;;;;;;;8.41;100.00;99139.66;5039946;28;20041;-75
2024/04/02 02:07:27;;;;;;;51.10;20.85;;;;;;;8.41;100.00;99142.31;5047173;28;20484;-75
2024/04/02 02:09:53;;;;;;;45.33;20.00;;;;;;;8.45;100.00;99150.72;5024231;28;20040;-75
2024/04/02 02:12:18;;;;;;;51.10;22.07;;;;;;;8.45;100.00;99146.25;5041640;28;20144;-76
2024/04/02 02:14:44;;;;;;;45.85;18.60;;;;;;;8.45;100.00;99153.38;5037891;28;20032;-75
2024/04/02 02:17:09;;;;;;;42.03;17.87;;;;;;;8.43;100.00;99147.44;5029202;28;20045;-75
2024/04/02 02:19:34;;;;;;;37.70;18.57;;;;;;;8.42;100.00;99145.78;5031869;28;20116;-75
2024/04/02 02:22:00;;;;;;;34.93;17.23;;;;;;;8.43;100.00;99145.59;5027200;28;20025;-76
2024/04/02 02:24:25;;;;;;;41.27;15.37;;;;;;;8.47;100.00;99145.22;5040582;28;20036;-76
2024/04/02 02:26:51;;;;;;;38.93;16.17;;;;;;;8.47;100.00;99146.03;5036865;28;20355;-77
2024/04/02 02:29:17;;;;;;;35.13;13.40;;;;;;;8.43;100.00;99129.66;5036735;28;20280;-76
2024/04/02 02:31:42;;;;;;;29.73;13.82;;;;;;;8.41;100.00;99131.66;5040944;28;20053;-76
2024/04/02 02:34:07;;;;;;;28.45;14.02;;;;;;;8.36;100.00;99136.69;5016053;28;20033;-76
2024/04/02 02:36:33;;;;;;;32.47;12.63;;;;;;;8.50;100.00;99144.84;5026553;28;20036;-76
2024/04/02 02:38:58;;;;;;;27.33;12.63;;;;;;;8.47;100.00;99134.59;5015674;28;20143;-76
2024/04/02 02:41:24;;;;;;;26.27;12.03;;;;;;;8.46;100.00;99147.06;5036639;28;20656;-76
2024/04/02 02:43:49;;;;;;;28.67;11.33;;;;;;;8.45;100.00;99143.59;5039610;28;20783;-76
2024/04/02 02:46:14;;;;;;;22.45;11.30;;;;;;;8.40;100.00;99145.13;5041327;28;20063;-76
2024/04/02 02:48:40;;;;;;;29.60;11.33;;;;;;;8.38;100.00;99137.34;5030791;28;20036;-77
2024/04/02 02:51:06;;;;;;;27.77;12.13;;;;;;;8.37;100.00;99140.19;5037318;28;20809;-77
2024/04/02 02:53:31;;;;;;;23.42;10.88;;;;;;;8.43;100.00;99150.94;5039598;28;20080;-77
2024/04/02 02:55:58;;;;;;;21.42;11.05;;;;;;;8.48;100.00;99153.03;5039855;28;20065;-77
2024/04/02 02:58:23;;;;;;;45.40;14.75;;;;;;;8.49;100.00;99159.16;5043771;28;20029;-77
2024/04/02 03:00:49;;;;;;;27.63;11.82;;;;;;;8.47;100.00;99158.53;5036590;28;20899;-76
2024/04/02 03:03:14;;;;;;;30.00;11.50;;;;;;;8.51;100.00;99165.13;5037807;28;20426;-76
2024/04/02 03:05:40;;;;;;;30.35;12.18;;;;;;;8.50;100.00;99158.13;5048114;28;20107;-77
2024/04/02 03:08:06;;;;;;;31.48;12.70;;;;;;;8.57;100.00;99167.00;5047523;28;20738;-77
2024/04/02 03:10:31;;;;;;;24.25;11.80;;;;;;;8.56;100.00;99165.38;5038701;28;20031;-78
2024/04/02 03:12:57;;;;;;;28.80;12.25;;;;;;;8.50;100.00;99150.16;5041880;28;20045;-77
2024/04/02 03:15:23;;;;;;;30.42;13.73;;;;;;;8.50;100.00;99160.78;5044869;28;20047;-77
2024/04/02 03:17:48;;;;;;;25.40;12.68;;;;;;;8.52;100.00;99169.41;5047657;28;20036;-77
2024/04/02 03:20:14;;;;;;;30.80;14.27;;;;;;;8.49;100.00;99167.97;5027076;28;20025;-77
2024/04/02 03:22:39;;;;;;;23.67;11.67;;;;;;;8.43;100.00;99169.53;5018312;28;20484;-76
2024/04/02 03:25:04;;;;;;;28.93;12.60;;;;;;;8.40;100.00;99166.41;5029335;28;20349;-77
2024/04/02 03:27:30;;;;;;;32.10;11.50;;;;;;;8.47;100.00;99169.16;5048793;28;20526;-77
2024/04/02 03:29:56;;;;;;;31.85;11.60;;;;;;;8.43;100.00;99172.19;5044769;28;20294;-77
2024/04/02 03:32:21;;;;;;;38.17;12.53;;;;;;;8.42;100.00;99177.69;5042379;28;20049;-78
2024/04/02 03:34:46;;;;;;;24.60;12.10;;;;;;;8.38;100.00;99179.88;5036226;28;20033;-77
2024/04/02 03:37:12;;;;;;;30.43;11.13;;;;;;;8.47;100.00;99172.63;5045202;28;20032;-77
2024/04/02 03:39:37;;;;;;;33.58;13.07;;;;;;;8.47;100.00;99177.13;5043102;28;20041;-77
2024/04/02 03:42:03;;;;;;;32.53;11.93;;;;;;;8.48;100.00;99187.59;5038180;22;20045;-75
2024/04/02 03:44:29;;;;;;;30.92;12.20;;;;;;;8.48;100.00;99190.25;5000136;28;20094;-75
2024/04/02 03:46:56;;;;;;;24.17;11.10;;;;;;;8.47;100.00;99183.28;5022312;28;20389;-75
2024/04/02 03:49:22;;;;;;;22.90;11.90;;;;;;;8.43;100.00;99182.03;5024984;28;20087;-75
2024/04/02 03:51:48;;;;;;;35.60;12.10;;;;;;;8.42;100.00;99191.00;4992941;28;20038;-76
2024/04/02 03:54:15;;;;;;;27.52;12.30;;;;;;;8.35;100.00;99193.53;5012604;28;20272;-75
2024/04/02 03:56:40;;;;;;;33.40;12.00;;;;;;;8.41;100.00;99194.69;5015513;28;20116;-76
2024/04/02 03:59:06;;;;;;;28.80;13.57;;;;;;;8.39;100.00;99200.13;5013355;28;20543;-75
2024/04/02 04:01:31;;;;;;;29.27;12.63;;;;;;;8.39;100.00;99186.03;5020989;28;20108;-75
2024/04/02 04:03:57;;;;;;;29.50;11.67;;;;;;;8.41;100.00;99194.69;5014809;28;20786;-76
2024/04/02 04:06:22;;;;;;;27.23;12.63;;;;;;;8.48;100.00;99195.56;5007907;28;20080;-75
2024/04/02 04:08:47;;;;;;;39.33;13.27;;;;;;;8.36;100.00;99187.22;5021741;28;20034;-75
2024/04/02 04:11:13;;;;;;;27.57;11.53;;;;;;;8.35;100.00;99190.88;5013532;28;20447;-75
2024/04/02 04:13:38;;;;;;;20.80;11.07;;;;;;;8.34;100.00;99202.53;5014389;28;20249;-75
2024/04/02 04:16:04;;;;;;;28.38;10.77;;;;;;;8.29;100.00;99191.63;5017897;28;20166;-75
2024/04/02 04:18:30;;;;;;;33.88;11.00;;;;;;;8.42;100.00;99198.97;5024804;28;20029;-76
2024/04/02 04:20:58;;;;;;;33.90;10.18;;;;;;;8.37;100.00;99188.84;5025141;28;20106;-76
2024/04/02 04:23:24;;;;;;;28.20;9.93;;;;;;;8.37;100.00;99186.19;5018608;28;20029;-76
2024/04/02 04:25:59;;;;;;;44.25;12.48;;;;;;;8.37;100.00;99199.50;5028172;28;20036;-75
2024/04/02 04:28:25;;;;;;;26.88;10.70;;;;;;;8.42;100.00;99196.31;5009404;28;20096;-76
2024/04/02 04:30:59;;;;;;;33.10;9.93;;;;;;;8.38;100.00;99211.81;5009595;28;20024;-76
2024/04/02 04:33:25;;;;;;;24.05;11.68;;;;;;;8.40;100.00;99216.94;5021378;28;20555;-76
2024/04/02 04:35:51;;;;;;;28.98;10.55;;;;;;;8.33;100.00;99218.66;5019669;28;20060;-76
2024/04/02 04:38:17;;;;;;;;;;;;;;;8.39;100.00;99221.41;5025192;28;20038;-76
2024/04/02 04:40:42;;;;;;;32.75;10.63;;;;;;;8.49;100.00;99217.69;5024618;28;20390;-76
2024/04/02 04:43:08;;;;;;;27.42;11.52;;;;;;;8.45;100.00;99222.53;5024211;28;20034;-75
2024/04/02 04:45:34;;;;;;;32.65;10.68;;;;;;;8.45;100.00;99222.53;5024506;28;20034;-76
2024/04/02 04:47:59;;;;;;;32.88;11.63;;;;;;;8.49;100.00;99228.31;5017247;28;20037;-76
2024/04/02 04:50:25;;;;;;;34.33;12.97;;;;;;;8.47;100.00;99217.03;5007599;28;20447;-75
2024/04/02 04:52:53;;;;;;;28.77;11.80;;;;;;;8.43;100.00;99222.72;5037307;28;20290;-75
2024/04/02 04:55:19;;;;;;;31.67;11.52;;;;;;;8.41;100.00;99226.59;5018744;28;20068;-76
2024/04/02 04:57:44;;;;;;;29.37;10.33;;;;;;;8.41;100.00;99227.41;5028312;28;20091;-77
2024/04/02 05:00:12;;;;;;;33.27;10.67;;;;;;;8.46;100.00;99232.16;5009637;28;20352;-76
2024/04/02 05:02:38;;;;;;;25.00;10.50;;;;;;;8.48;100.00;99227.50;5006895;28;20037;-76
2024/04/02 05:05:03;;;;;;;33.28;11.20;;;;;;;8.43;100.00;99225.41;5006312;28;20018;-76
2024/04/02 05:07:28;;;;;;;33.75;11.48;;;;;;;8.51;100.00;99236.94;5021307;28;20048;-76
2024/04/02 05:09:54;;;;;;;20.47;9.70;;;;;;;8.42;100.00;99225.56;5018537;28;20021;-76
2024/04/02 05:12:19;;;;;;;29.70;11.13;;;;;;;8.48;100.00;99234.66;5022831;28;20480;-76
2024/04/02 05:14:45;;;;;;;33.17;11.80;;;;;;;8.45;100.00;99223.38;5021159;28;20029;-76
2024/04/02 05:17:10;;;;;;;31.20;11.43;;;;;;;8.43;100.00;99235.22;5036712;28;20056;-76
2024/04/02 05:19:36;;;;;;;26.02;10.52;;;;;;;8.45;100.00;99225.19;5024970;28;20132;-76
2024/04/02 05:22:01;;;;;;;32.08;10.63;;;;;;;8.47;100.00;99238.31;5015495;28;20030;-76
2024/04/02 05:24:26;;;;;;;35.80;10.63;;;;;;;8.45;100.00;99233.16;5001648;28;20032;-76
2024/04/02 05:26:52;;;;;;;24.90;9.93;;;;;;;8.37;100.00;99234.06;5013524;28;20453;-76
2024/04/02 05:29:17;;;;;;;31.23;10.40;;;;;;;8.38;100.00;99235.72;5026136;28;20045;-76
2024/04/02 05:31:43;;;;;;;31.00;11.13;;;;;;;8.36;100.00;99234.28;5023996;28;20033;-76
2024/04/02 05:34:08;;;;;;;22.65;9.73;;;;;;;8.43;100.00;99237.88;5027814;28;20527;-77
2024/04/02 05:36:34;;;;;;;27.73;10.20;;;;;;;8.50;100.00;99241.44;5023153;28;20484;-76
2024/04/02 05:38:59;;;;;;;33.07;11.40;;;;;;;8.34;100.00;99218.50;5028022;28;20037;-76
2024/04/02 05:41:25;;;;;;;26.08;10.35;;;;;;;8.41;100.00;99243.38;5027257;28;20033;-76
2024/04/02 05:43:50;;;;;;;22.90;10.03;;;;;;;8.52;100.00;99238.56;5020300;28;20392;-77
2024/04/02 05:46:16;;;;;;;26.67;9.93;;;;;;;8.49;100.00;99238.94;5000466;28;20293;-76
2024/04/02 05:48:41;;;;;;;29.27;10.80;;;;;;;8.50;100.00;99233.47;5017518;28;20036;-77
2024/04/02 05:51:07;;;;;;;24.03;10.37;;;;;;;8.51;100.00;99239.59;5021839;28;20157;-77
2024/04/02 05:53:32;;;;;;;31.33;9.75;;;;;;;8.43;100.00;99245.84;5007933;28;20029;-76
2024/04/02 05:55:59;;;;;;;23.80;8.90;;;;;;;8.41;100.00;99246.03;5000481;28;20038;-76
2024/04/02 05:58:25;;;;;;;28.25;9.07;;;;;;;8.51;100.00;99258.22;5011839;28;20293;-77
2024/04/02 06:01:03;;;;;;;27.10;9.47;;;;;;;8.51;100.00;99252.91;5014744;28;20032;-76
2024/04/02 06:03:29;;;;;;;23.77;11.00;;;;;;;8.38;100.00;99250.84;5000662;28;20442;-76
2024/04/02 06:05:54;;;;;;;20.43;8.77;;;;;;;8.54;100.00;99253.34;5017581;28;20039;-76
2024/04/02 06:08:19;;;;;;;25.10;9.83;;;;;;;8.53;100.00;99257.03;5030104;28;20029;-76
2024/04/02 06:10:45;;;;;;;21.10;9.30;;;;;;;8.52;100.00;99246.56;5018035;28;20717;-76
2024/04/02 06:13:10;;;;;;;20.08;9.18;;;;;;;8.45;100.00;99255.28;5040569;28;20041;-76
2024/04/02 06:15:36;;;;;;;36.60;10.37;;;;;;;8.60;100.00;99268.56;5028498;28;20044;-76
2024/04/02 06:18:01;;;;;;;27.97;8.83;;;;;;;8.51;100.00;99274.19;5027434;28;20291;-76
2024/04/02 06:20:26;;;;;;;25.17;10.17;;;;;;;8.47;100.00;99268.38;5026275;28;20044;-76
2024/04/02 06:22:52;;;;;;;26.70;9.43;;;;;;;8.44;100.00;99277.56;5022460;28;20785;-76
2024/04/02 06:25:17;;;;;;;19.13;10.03;;;;;;;8.47;100.00;99278.22;5026884;28;20025;-76
2024/04/02 06:27:43;;;;;;;27.33;9.73;;;;;;;8.53;100.00;99272.97;5020021;28;20033;-76
2024/04/02 06:30:08;;;;;;;21.98;10.45;;;;;;;8.58;100.00;99275.09;5030015;28;20530;-76
2024/04/02 06:32:34;;;;;;;21.30;10.05;;;;;;;8.51;100.00;99264.34;5024357;28;20099;-77
2024/04/02 06:34:59;;;;;;;21.33;9.43;;;;;;;8.52;100.00;99276.66;5005132;28;20037;-77
2024/04/02 06:37:24;;;;;;;17.03;8.63;;;;;;;8.44;100.00;99269.59;5020496;28;20095;-77
2024/04/02 06:39:50;;;;;;;28.07;10.00;;;;;;;8.54;100.00;99276.44;5038449;28;20029;-77
2024/04/02 06:42:15;;;;;;;33.30;11.80;;;;;;;8.58;100.00;99291.88;5024628;28;20040;-77
2024/04/02 06:44:41;;;;;;;28.67;10.63;;;;;;;8.61;100.00;99296.81;5023489;28;20018;-76
2024/04/02 06:47:06;;;;;;;28.10;10.10;;;;;;;8.59;100.00;99290.88;5036754;28;20029;-77
2024/04/02 06:49:31;;;;;;;22.07;9.27;;;;;;;8.64;100.00;99291.13;5044774;28;20396;-75
2024/04/02 06:51:57;;;;;;;26.67;9.03;;;;;;;8.70;100.00;99302.84;5016060;28;20029;-77
2024/04/02 06:54:22;;;;;;;30.90;9.57;;;;;;;8.80;100.00;99294.59;5022684;28;20405;-77
2024/04/02 06:56:47;;;;;;;26.90;10.77;;;;;;;8.75;100.00;99291.66;5025731;28;20033;-75
2024/04/02 06:59:13;;;;;;;21.93;11.40;;;;;;;8.80;100.00;99303.41;5006970;28;20033;-77
2024/04/02 07:01:38;;;;;;;33.33;11.70;;;;;;;8.76;100.00;99296.00;5010143;28;20588;-77
2024/04/02 07:04:03;;;;;;;31.30;11.13;;;;;;;8.82;100.00;99296.03;5000181;28;20363;-77
2024/04/02 07:06:29;;;;;;;29.90;10.87;;;;;;;8.66;100.00;99296.25;5026809;28;20087;-76
2024/04/02 07:08:55;;;;;;;34.63;11.17;;;;;;;8.76;100.00;99299.47;5027298;28;20118;-77
2024/04/02 07:11:20;;;;;;;26.35;9.65;;;;;;;8.80;100.00;99311.41;5026593;28;20061;-77
2024/04/02 07:13:45;;;;;;;22.90;10.27;;;;;;;8.71;100.00;99301.88;5013887;28;20057;-77
2024/04/02 07:16:11;;;;;;;27.00;10.10;;;;;;;8.82;100.00;99312.00;5005198;28;20639;-77
2024/04/02 07:18:36;;;;;;;28.47;9.63;;;;;;;8.71;100.00;99293.88;5015683;28;20037;-77
2024/04/02 07:21:04;;;;;;;27.00;9.93;;;;;;;8.72;100.00;99311.47;5014221;28;20045;-77
2024/04/02 07:23:30;;;;;;;23.15;10.65;;;;;;;8.72;100.00;99303.50;5009453;28;20033;-76
2024/04/02 07:25:55;;;;;;;38.60;11.93;;;;;;;8.82;100.00;99312.00;5003243;28;20111;-77
2024/04/02 07:28:21;;;;;;;30.38;10.15;;;;;;;8.84;100.00;99317.97;5015960;28;20044;-77
2024/04/02 07:30:47;;;;;;;25.48;9.73;;;;;;;8.75;100.00;99310.28;5013864;28;20055;-77
2024/04/02 07:33:13;;;;;;;24.67;12.32;;;;;;;8.75;100.00;99316.41;5008838;28;20474;-77
2024/04/02 07:35:39;;;;;;;;;;;;;;;8.88;100.00;99329.09;5003229;28;20037;-76
2024/04/02 07:38:05;;;;;;;32.65;9.98;;;;;;;8.93;100.00;99325.88;5019067;28;19919;-77
2024/04/02 07:40:31;;;;;;;32.35;10.38;;;;;;;8.95;100.00;99318.53;4981876;28;20026;-77
2024/04/02 07:42:58;;;;;;;24.92;10.10;;;;;;;9.00;100.00;99332.91;5022550;28;20044;-77
2024/04/02 07:45:24;;;;;;;31.13;10.05;;;;;;;8.99;100.00;99319.78;5008865;28;20041;-76
2024/04/02 07:47:50;;;;;;;22.20;10.13;;;;;;;9.03;100.00;99318.41;5012344;28;20064;-76
2024/04/02 07:50:15;;;;;;;27.73;10.90;;;;;;;9.03;100.00;99318.41;5024465;28;20373;-76
2024/04/02 07:52:41;;;;;;;20.67;8.98;;;;;;;8.99;100.00;99312.63;5016716;28;20037;-77
2024/04/02 07:55:06;;;;;;;26.87;9.80;;;;;;;9.09;100.00;99304.34;5014806;28;20034;-77
2024/04/02 07:57:31;;;;;;;24.00;9.63;;;;;;;9.18;100.00;99319.19;5017612;28;20530;-77
2024/04/02 07:59:57;;;;;;;29.47;11.57;;;;;;;9.03;100.00;99299.75;5022100;28;20094;-76
2024/04/02 08:02:22;;;;;;;33.90;11.73;;;;;;;9.16;100.00;99309.75;5034033;28;20095;-77
2024/04/02 08:04:51;;;;;;;26.90;9.98;;;;;;;9.13;100.00;99316.28;5022237;28;20105;-77
2024/04/02 08:07:17;;;;;;;26.75;10.63;;;;;;;9.12;100.00;99311.13;5030690;28;20053;-76
2024/04/02 08:09:44;;;;;;;24.88;10.63;;;;;;;9.16;100.00;99331.88;5004272;28;20477;-77
2024/04/02 08:12:10;;;;;;;32.65;10.88;;;;;;;9.19;100.00;99325.34;5003111;28;20124;-76
2024/04/02 08:14:36;;;;;;;31.30;10.90;;;;;;;9.21;100.00;99333.97;5009039;28;20711;-77
2024/04/02 08:17:02;;;;;;;30.35;12.77;;;;;;;9.22;100.00;99333.75;5014432;28;20106;-77
2024/04/02 08:19:28;;;;;;;31.13;10.50;;;;;;;9.18;100.00;99339.69;5024752;28;20115;-77
2024/04/02 08:21:53;;;;;;;26.33;10.57;;;;;;;9.19;100.00;99342.13;5014216;28;20037;-77
2024/04/02 08:24:19;;;;;;;26.55;10.20;;;;;;;9.20;100.00;99341.16;5040419;28;20029;-77
2024/04/02 08:26:45;;;;;;;31.58;13.13;;;;;;;9.26;100.00;99358.19;5012360;28;20129;-76
2024/04/02 08:29:10;;;;;;;32.00;11.63;;;;;;;9.36;100.00;99340.06;5017625;28;20026;-77
2024/04/02 08:31:35;;;;;;;28.60;10.63;;;;;;;9.38;100.00;99334.56;5004814;28;20069;-76
2024/04/02 08:34:01;;;;;;;19.30;9.77;;;;;;;9.43;100.00;99332.97;5024432;28;20291;-75
2024/04/02 08:36:26;;;;;;;25.33;9.10;;;;;;;9.59;100.00;99337.22;5018577;28;20396;-77
2024/04/02 08:38:53;;;;;;;30.93;10.10;;;;;;;9.57;100.00;99338.44;5025987;28;20049;-76
2024/04/02 08:41:18;;;;;;;27.65;9.45;;;;;;;9.61;100.00;99318.38;5028093;28;20030;-77
2024/04/02 08:43:45;;;;;;;21.92;9.15;;;;;;;9.63;100.00;99313.69;5000240;28;20400;-76
2024/04/02 08:46:11;;;;;;;19.75;9.32;;;;;;;9.68;100.00;99319.28;5010874;28;20584;-77
2024/04/02 08:48:37;;;;;;;36.33;10.55;;;;;;;9.73;100.00;99308.84;5008546;28;20045;-77
2024/04/02 08:51:05;;;;;;;21.42;9.13;;;;;;;9.83;100.00;99321.84;5032662;28;20037;-75
2024/04/02 08:53:33;;;;;;;35.33;11.68;;;;;;;9.65;100.00;99312.50;5020723;28;20407;-76
2024/04/02 08:55:59;;;;;;;22.23;9.15;;;;;;;9.67;100.00;99323.78;5041075;28;20033;-77
2024/04/02 08:58:26;;;;;;;31.10;10.90;;;;;;;9.71;100.00;99329.53;5008273;28;20481;-77
2024/04/02 09:00:53;;;;;;;29.13;11.23;;;;;;;9.66;100.00;99339.97;5025114;28;20795;-77
2024/04/02 09:03:19;;;;;;;25.00;9.77;;;;;;;9.75;100.00;99340.66;5014622;28;20025;-77
2024/04/02 09:05:45;;;;;;;23.67;9.85;;;;;;;9.88;100.00;99324.75;5004475;28;20030;-76
2024/04/02 09:08:12;;;;;;;24.42;10.20;;;;;;;9.91;100.00;99313.72;4992034;28;20038;-77
2024/04/02 09:10:38;;;;;;;24.95;9.30;;;;;;;9.83;100.00;99303.19;5007268;28;20053;-77
2024/04/02 09:13:03;;;;;;;19.42;8.35;;;;;;;9.72;100.00;99277.91;5040611;28;20118;-77
2024/04/02 09:15:29;;;;;;;22.70;10.02;;;;;;;9.94;100.00;99302.66;5015235;28;20041;-76
2024/04/02 09:17:55;;;;;;;21.83;9.17;;;;;;;9.99;100.00;99294.91;5018287;28;20037;-77
2024/04/02 09:20:21;;;;;;;21.15;9.38;;;;;;;9.96;100.00;99278.50;5038266;28;20620;-77
2024/04/02 09:22:49;;;;;;;21.40;9.93;;;;;;;9.94;100.00;99266.16;5015575;28;20116;-77
2024/04/02 09:25:18;;;;;;;21.13;8.60;;;;;;;9.83;100.00;99256.06;5025073;28;20029;-77
2024/04/02 09:27:44;;;;;;;21.55;9.13;;;;;;;9.76;100.00;99262.34;5040472;28;20034;-76
2024/04/02 09:30:10;;;;;;;27.80;7.63;;;;;;;9.90;100.00;99291.59;5014036;28;20026;-77
2024/04/02 09:32:37;;;;;;;17.45;8.77;;;;;;;9.96;100.00;99276.66;4992215;28;20033;-78
2024/04/02 09:35:46;;;;;;;21.63;9.65;;;;;;;10.06;100.00;99290.44;5009559;28;20040;-77
2024/04/02 09:38:14;;;;;;;23.80;8.45;;;;;;;10.12;100.00;99284.34;5024762;28;20041;-77
2024/04/02 09:40:41;;;;;;;20.80;8.45;;;;;;;10.29;100.00;99273.41;5040298;28;20068;-77
2024/04/02 09:43:09;;;;;;;17.20;8.40;;;;;;;10.47;100.00;99287.06;5040379;28;20044;-79
2024/04/02 09:45:36;;;;;;;25.48;8.32;;;;;;;10.18;100.00;99229.38;5040364;28;20120;-77
2024/04/02 09:48:02;;;;;;;21.70;8.52;;;;;;;10.14;100.00;99246.81;5023866;28;20053;-76
2024/04/02 09:50:29;;;;;;;19.35;8.35;;;;;;;10.12;100.00;99257.69;5024820;28;20730;-77
2024/04/02 09:52:57;;;;;;;22.25;9.88;;;;;;;10.17;100.00;99258.94;5002259;28;20091;-77
2024/04/02 09:55:24;;;;;;;18.58;7.78;;;;;;;10.21;100.00;99265.50;5036369;28;20453;-77
2024/04/02 09:57:50;;;;;;;17.63;7.95;;;;;;;10.37;100.00;99272.41;5022623;28;20037;-76
2024/04/02 10:00:15;;;;;;;28.77;9.68;;;;;;;9.99;100.00;99209.59;5028424;28;20033;-77
2024/04/02 10:02:42;;;;;;;22.63;8.50;;;;;;;10.12;100.00;99260.34;5024842;28;20033;-77
2024/04/02 10:05:10;;;;;;;17.75;8.75;;;;;;;10.05;100.00;99264.81;5022811;28;20124;-77
2024/04/02 10:07:43;;;;;;;27.50;8.77;;;;;;;10.17;100.00;99269.59;5043461;28;20029;-77
2024/04/02 10:10:11;;;;;;;19.13;8.38;;;;;;;10.17;100.00;99291.75;5019796;28;20025;-77
2024/04/02 10:12:38;;;;;;;18.35;9.05;;;;;;;10.32;100.00;99291.66;5026473;28;20036;-77
2024/04/02 10:15:05;;;;;;;29.15;8.98;;;;;;;10.47;100.00;99292.38;5021812;28;20029;-76
2024/04/02 10:17:34;;;;;;;21.10;9.05;;;;;;;10.63;100.00;99277.03;5026797;28;20029;-77
2024/04/02 10:19:59;;;;;;;17.80;8.20;;;;;;;11.06;100.00;99276.81;5039084;28;20038;-76
2024/04/02 10:22:27;;;;;;;19.60;9.07;;;;;;;11.22;100.00;99227.53;5025517;28;20035;-77
2024/04/02 10:25:12;;;;;;;30.88;9.55;;;;;;;11.27;100.00;99148.41;5015929;28;20052;-77
2024/04/02 10:27:41;;;;;;;15.90;7.03;;;;;;;11.54;100.00;99143.03;5011282;28;20034;-77
2024/04/02 10:30:16;;;;;;;23.63;8.48;;;;;;;11.49;100.00;99057.31;5010848;28;20404;-77
2024/04/02 10:32:42;;;;;;;13.68;8.07;;;;;;;11.35;100.00;99030.63;5010911;28;20072;-77
2024/04/02 10:35:17;;;;;;;23.45;8.60;;;;;;;11.23;100.00;99007.44;5008753;28;20076;-77
2024/04/02 10:37:44;;;;;;;21.90;7.57;;;;;;;10.98;100.00;98995.59;5014161;28;20041;-77
2024/04/02 10:40:10;;;;;;;21.60;8.23;;;;;;;10.93;100.00;99027.44;5026813;28;20391;-77
2024/04/02 10:42:36;;;;;;;16.67;7.83;;;;;;;10.89;100.00;99054.75;5026514;28;20029;-77
2024/04/02 10:45:02;;;;;;;19.90;8.13;;;;;;;10.75;100.00;99065.41;5034699;28;20034;-77
2024/04/02 10:47:29;;;;;;;18.75;8.45;;;;;;;10.77;100.00;99103.41;5011509;28;20099;-77
2024/04/02 10:49:56;;;;;;;22.88;8.52;;;;;;;10.48;100.00;99120.59;5015756;28;20495;-77
2024/04/02 10:52:21;;;;;;;23.77;10.02;;;;;;;10.26;100.00;99146.56;5018183;28;20033;-77
2024/04/02 10:54:46;;;;;;;20.42;7.90;;;;;;;10.39;100.00;99211.69;5022348;28;20038;-77
2024/04/02 10:57:12;;;;;;;17.67;8.40;;;;;;;10.36;100.00;99263.59;5021501;28;20042;-77
2024/04/02 10:59:41;;;;;;;24.10;9.70;;;;;;;10.33;100.00;99306.66;5026608;28;20024;-77
2024/04/02 11:02:18;;;;;;;20.02;8.50;;;;;;;10.22;100.00;99286.66;5026069;28;20091;-77
2024/04/02 11:04:44;;;;;;;;;;;;;;;10.19;100.00;99326.25;5024173;28;20057;-77
2024/04/02 11:07:11;;;;;;;24.30;10.30;;;;;;;10.09;100.00;99329.22;5027145;28;20529;-77
2024/04/02 11:09:39;;;;;;;24.95;8.70;;;;;;;10.00;100.00;99354.41;5042351;28;20068;-77
2024/04/02 11:12:07;;;;;;;29.40;9.40;;;;;;;10.04;100.00;99364.47;5027204;28;20033;-77
2024/04/02 11:14:34;;;;;;;30.70;9.35;;;;;;;10.04;100.00;99393.81;5025458;28;20037;-77